Time;durP1;ratioP1;P1;durP2;ratioP2;P2;SDS_P1;SDS_P2;PMS_P1;PMS_P2;Temp;Humidity;BMP_temperature;BMP_pressure;BME280_temperature;BME280_humidity;BME280_pressure;Samples;Min_cycle;Max_cycle;Signal;HPM_P1;HPM_P2
2022/12/07 00:01:51;;;;;;;;;;;;;;;10.95;50.41;100455.22;4942661;28;126549;-65
2022/12/07 00:04:17;;;;;;;;;;;;;;;10.96;50.42;100451.41;4942145;28;108328;-68
2022/12/07 00:06:45;;;;;;;;;;;;;;;10.96;50.47;100453.31;4927778;28;99629;-65
2022/12/07 00:09:15;;;;;;;;;;;;;;;10.95;50.37;100447.13;4941929;28;98627;-68
2022/12/07 00:11:41;;;;;;;;;;;;;;;10.95;50.23;100447.13;4941119;28;97891;-67
2022/12/07 00:14:10;;;;;;;;;;;;;;;10.96;50.37;100443.31;4930544;28;98664;-65
2022/12/07 00:16:36;;;;;;;;;;;;;;;10.96;50.23;100445.22;4961257;28;98910;-68
2022/12/07 00:19:02;;;;;;;;;;;;;;;10.95;50.48;100439.03;4946870;28;98627;-68
2022/12/07 00:21:30;;;;;;;;;;;;;;;10.96;50.53;100434.44;4944295;28;113327;-68
2022/12/07 00:23:56;;;;;;;;;;;;;;;10.95;50.46;100436.31;4928829;28;111253;-65
2022/12/07 00:26:24;;;;;;;;;;;;;;;10.95;50.31;100428.22;4943474;28;99366;-65
2022/12/07 00:28:55;;;;;;;;;;;;;;;10.95;50.24;100424.72;4942075;28;99669;-65
2022/12/07 00:31:23;;;;;;;;;;;;;;;10.95;50.36;100425.53;4957580;28;121120;-68
2022/12/07 00:33:49;;;;;;;;;;;;;;;10.95;50.28;100414.75;4941317;28;98002;-68
2022/12/07 00:36:17;;;;;;;;;;;;;;;10.94;50.34;100409.63;4941472;28;119459;-68
2022/12/07 00:38:43;;;;;;;;;;;;;;;10.95;50.45;100411.25;4944108;28;107015;-68
2022/12/07 00:41:13;;;;;;;;;;;;;;;10.94;50.33;100407.75;4941859;28;127716;-65
2022/12/07 00:43:40;;;;;;;;;;;;;;;10.95;50.61;100419.34;4939333;28;100276;-65
2022/12/07 00:46:06;;;;;;;;;;;;;;;10.95;50.52;100414.75;4944489;28;99496;-68
2022/12/07 00:48:32;;;;;;;;;;;;;;;10.94;50.37;100409.63;4945274;28;98444;-65
2022/12/07 00:50:58;;;;;;;;;;;;;;;10.94;50.35;100421.22;4977826;28;116098;-65
2022/12/07 00:53:23;;;;;;;;;;;;;;;10.94;50.40;100417.72;4943228;28;117558;-65
2022/12/07 00:55:49;;;;;;;;;;;;;;;10.94;50.30;100412.34;4927894;28;99942;-68
2022/12/07 00:58:15;;;;;;;;;;;;;;;10.94;50.39;100418.53;4959774;28;98290;-68
2022/12/07 01:00:42;;;;;;;;;;;;;;;10.93;50.37;100422.31;4943678;28;105149;-65
2022/12/07 01:03:09;;;;;;;;;;;;;;;10.93;50.37;100418.81;4959971;28;113354;-65
2022/12/07 01:05:35;;;;;;;;;;;;;;;10.92;50.36;100419.88;4954879;28;123287;-68
2022/12/07 01:08:01;;;;;;;;;;;;;;;10.93;50.48;100421.50;4940279;28;128033;-68
2022/12/07 01:10:27;;;;;;;;;;;;;;;10.91;50.43;100413.69;4941417;28;98063;-68
2022/12/07 01:12:53;;;;;;;;;;;;;;;10.91;50.54;100419.06;4960651;28;101313;-65
2022/12/07 01:15:19;;;;;;;;;;;;;;;10.93;50.42;100418.81;4971560;27;128764;-65
2022/12/07 01:17:45;;;;;;;;;;;;;;;10.92;50.43;100428.78;4943541;28;127701;-68
2022/12/07 01:20:11;;;;;;;;;;;;;;;10.92;50.55;100427.97;4946179;28;127969;-65
2022/12/07 01:22:38;;;;;;;;;;;;;;;10.92;50.27;100423.38;4964259;28;101414;-65
2022/12/07 01:25:05;;;;;;;;;;;;;;;10.93;50.21;100430.41;4944369;28;98163;-68
2022/12/07 01:27:32;;;;;;;;;;;;;;;10.92;50.34;100431.47;4967611;28;98501;-65
2022/12/07 01:29:58;;;;;;;;;;;;;;;10.91;50.40;100429.06;4932017;28;123116;-65
2022/12/07 01:32:23;;;;;;;;;;;;;;;10.91;50.65;100429.84;4952941;28;118697;-65
2022/12/07 01:34:49;;;;;;;;;;;;;;;10.90;50.48;100430.13;4961361;28;128503;-68
2022/12/07 01:37:15;;;;;;;;;;;;;;;10.90;50.41;100422.03;4947290;28;129115;-68
2022/12/07 01:39:41;;;;;;;;;;;;;;;10.91;50.35;100420.97;4945443;28;127944;-68
2022/12/07 01:42:11;;;;;;;;;;;;;;;10.89;50.59;100418.53;4946496;28;98039;-68
2022/12/07 01:45:15;;;;;;;;;;;;;;;10.89;50.38;100413.16;4958030;28;120550;-68
2022/12/07 01:47:41;;;;;;;;;;;;;;;10.90;50.59;100416.66;4971677;28;99735;-68
2022/12/07 01:50:07;;;;;;;;;;;;;;;10.88;50.48;100416.09;4948407;28;126537;-65
2022/12/07 01:52:33;;;;;;;;;;;;;;;10.88;50.43;100413.41;4961012;28;100772;-65
2022/12/07 01:55:01;;;;;;;;;;;;;;;10.87;50.53;100415.28;4943071;28;98651;-65
2022/12/07 01:57:28;;;;;;;;;;;;;;;10.88;50.32;100413.41;4930288;28;98105;-65
2022/12/07 01:59:54;;;;;;;;;;;;;;;10.86;50.59;100408.28;4944811;28;126333;-68
2022/12/07 02:02:34;;;;;;;;;;;;;;;10.85;50.44;100420.16;4960087;28;116609;-68
2022/12/07 02:05:00;;;;;;;;;;;;;;;10.85;50.40;100417.47;4963749;28;103769;-65
2022/12/07 02:07:26;;;;;;;;;;;;;;;10.85;50.53;100422.88;4977140;28;111231;-68
2022/12/07 02:09:52;;;;;;;;;;;;;;;10.84;50.39;100421.22;4959375;28;126944;-68
2022/12/07 02:12:19;;;;;;;;;;;;;;;10.83;50.53;100419.59;4977940;28;116001;-65
2022/12/07 02:14:45;;;;;;;;;;;;;;;10.82;50.40;100420.69;4959033;28;107194;-65
2022/12/07 02:17:25;;;;;;;;;;;;;;;10.83;50.30;100414.22;4946627;28;127687;-65
2022/12/07 02:20:00;;;;;;;;;;;;;;;10.80;50.33;100412.06;4945288;28;127347;-68
2022/12/07 02:22:51;;;;;;;;;;;;;;;10.80;50.37;100412.84;4961149;28;98016;-68
2022/12/07 02:25:58;;;;;;;;;;;;;;;10.80;50.56;100414.75;4945405;28;98214;-68
2022/12/07 02:28:31;;;;;;;;;;;;;;;10.80;50.42;100415.56;4958120;28;121512;-68
2022/12/07 02:31:01;;;;;;;;;;;;;;;10.80;50.41;100404.78;4963008;28;98011;-65
2022/12/07 02:33:40;;;;;;;;;;;;;;;10.79;50.89;100400.47;4949344;28;98041;-67
2022/12/07 02:36:30;;;;;;;;;;;;;;;10.80;50.48;100395.88;4958954;28;113138;-68
2022/12/07 02:39:08;;;;;;;;;;;;;;;10.80;50.12;100385.09;4961089;28;107883;-65
2022/12/07 02:41:35;;;;;;;;;;;;;;;10.80;50.53;100385.09;4940349;28;115025;-68
2022/12/07 02:44:02;;;;;;;;;;;;;;;10.79;50.53;100386.19;4975985;28;98074;-68
2022/12/07 02:46:37;;;;;;;;;;;;;;;10.79;50.50;100383.47;4960724;28;118652;-65
2022/12/07 02:49:03;;;;;;;;;;;;;;;10.76;50.62;100384.81;4942489;28;120151;-68
2022/12/07 02:51:30;;;;;;;;;;;;;;;10.76;50.24;100382.13;4958067;28;122862;-68
2022/12/07 02:53:56;;;;;;;;;;;;;;;10.75;50.60;100375.13;4979628;28;98013;-68
2022/12/07 02:56:45;;;;;;;;;;;;;;;10.74;50.65;100370.81;4974347;28;128022;-65
2022/12/07 02:59:39;;;;;;;;;;;;;;;10.73;50.57;100366.50;4959848;28;98427;-68
2022/12/07 03:02:13;;;;;;;;;;;;;;;10.72;50.51;100366.75;4977806;28;98286;-68
2022/12/07 03:05:00;;;;;;;;;;;;;;;10.72;50.51;100364.88;4961999;28;99488;-65
2022/12/07 03:07:29;;;;;;;;;;;;;;;10.72;50.46;100364.88;4959947;28;105497;-68
2022/12/07 03:10:24;;;;;;;;;;;;;;;10.72;50.54;100362.19;4958861;28;100304;-68
2022/12/07 03:13:06;;;;;;;;;;;;;;;10.73;50.24;100366.50;4956735;27;98133;-68
2022/12/07 03:15:59;;;;;;;;;;;;;;;10.73;50.35;100355.72;4959341;28;98864;-65
2022/12/07 03:18:26;;;;;;;;;;;;;;;10.73;50.48;100355.72;4934153;28;100005;-68
2022/12/07 03:20:53;;;;;;;;;;;;;;;10.74;50.57;100367.31;4944796;28;127109;-65
2022/12/07 03:23:19;;;;;;;;;;;;;;;10.73;50.62;100360.31;4962782;28;99817;-68
2022/12/07 03:25:47;;;;;;;;;;;;;;;10.73;50.54;100354.94;4943617;28;118287;-68
2022/12/07 03:28:14;;;;;;;;;;;;;;;10.73;50.38;100355.72;4960519;28;104513;-65
2022/12/07 03:30:47;;;;;;;;;;;;;;;10.73;50.38;100353.03;4958585;28;99806;-65
2022/12/07 03:33:26;;;;;;;;;;;;;;;10.72;50.33;100346.00;4960259;28;99437;-65
2022/12/07 03:36:08;;;;;;;;;;;;;;;10.72;50.70;100345.19;4958167;28;101849;-68
2022/12/07 03:38:46;;;;;;;;;;;;;;;10.70;50.34;100340.09;4938765;28;98109;-68
2022/12/07 03:41:23;;;;;;;;;;;;;;;10.70;50.66;100342.78;4957851;28;98687;-66
2022/12/07 03:43:49;;;;;;;;;;;;;;;10.68;50.31;100339.53;4959975;28;117826;-65
2022/12/07 03:46:35;;;;;;;;;;;;;;;10.68;50.37;100334.13;4939839;28;117750;-65
2022/12/07 03:49:26;;;;;;;;;;;;;;;10.66;50.54;100330.13;4962504;28;98380;-68
2022/12/07 03:51:57;;;;;;;;;;;;;;;10.65;50.46;100323.94;4974096;28;98173;-68
2022/12/07 03:54:36;;;;;;;;;;;;;;;10.65;50.54;100325.78;4960910;28;113783;-65
2022/12/07 03:57:02;;;;;;;;;;;;;;;10.63;50.19;100315.28;4946388;28;97849;-68
2022/12/07 03:59:28;;;;;;;;;;;;;;;10.63;50.39;100317.19;4942490;28;99254;-68
2022/12/07 04:01:55;;;;;;;;;;;;;;;10.61;50.36;100306.69;4941733;28;129091;-65
2022/12/07 04:04:23;;;;;;;;;;;;;;;10.60;50.33;100296.97;4961653;28;98059;-65
2022/12/07 04:06:48;;;;;;;;;;;;;;;10.60;50.21;100301.53;4946739;28;98084;-65
2022/12/07 04:09:15;;;;;;;;;;;;;;;10.59;50.43;100297.25;4953262;28;127128;-65
2022/12/07 04:11:41;;;;;;;;;;;;;;;10.58;50.61;100299.13;4945128;28;116079;-65
2022/12/07 04:14:18;;;;;;;;;;;;;;;10.55;50.60;100297.78;4944096;28;128488;-68
2022/12/07 04:16:46;;;;;;;;;;;;;;;10.55;50.13;100300.47;4955993;28;100521;-68
2022/12/07 04:19:12;;;;;;;;;;;;;;;10.55;50.54;100299.66;4940653;28;101477;-68
2022/12/07 04:21:38;;;;;;;;;;;;;;;10.52;50.27;100298.31;4942847;28;99682;-68
2022/12/07 04:24:04;;;;;;;;;;;;;;;10.53;50.08;100288.34;4973901;28;127691;-68
2022/12/07 04:26:30;;;;;;;;;;;;;;;10.52;50.56;100287.53;4960514;28;98195;-65
2022/12/07 04:28:56;;;;;;;;;;;;;;;10.52;50.32;100284.84;4960676;28;127970;-68
2022/12/07 04:31:22;;;;;;;;;;;;;;;10.51;50.28;100277.03;4943487;28;129374;-68
2022/12/07 04:33:48;;;;;;;;;;;;;;;10.51;50.25;100271.63;4957495;28;127598;-68
2022/12/07 04:36:14;;;;;;;;;;;;;;;10.50;50.63;100270.03;4936908;28;116886;-65
2022/12/07 04:38:40;;;;;;;;;;;;;;;10.50;50.79;100275.41;4942898;28;98562;-68
2022/12/07 04:41:06;;;;;;;;;;;;;;;10.49;50.70;100268.38;4945287;28;127886;-65
2022/12/07 04:43:33;;;;;;;;;;;;;;;10.49;50.34;100274.63;4964805;28;97893;-65
2022/12/07 04:45:58;;;;;;;;;;;;;;;10.49;50.34;100274.63;4943340;28;116867;-68
2022/12/07 04:48:24;;;;;;;;;;;;;;;10.47;50.56;100260.59;4943760;28;129713;-65
2022/12/07 04:50:50;;;;;;;;;;;;;;;10.47;50.73;100263.28;4949456;28;128441;-68
2022/12/07 04:53:16;;;;;;;;;;;;;;;10.45;50.28;100253.84;4942776;28;127458;-65
2022/12/07 04:55:42;;;;;;;;;;;;;;;10.45;50.36;100256.53;4949020;28;97952;-65
2022/12/07 04:58:08;;;;;;;;;;;;;;;10.44;50.80;100253.03;4947832;28;119973;-68
2022/12/07 05:00:34;;;;;;;;;;;;;;;10.45;50.32;100251.16;4945456;28;128460;-65
2022/12/07 05:03:00;;;;;;;;;;;;;;;10.45;50.42;100253.84;4961431;28;126996;-65
2022/12/07 05:05:26;;;;;;;;;;;;;;;10.44;50.67;100254.94;4948154;28;119509;-67
2022/12/07 05:07:52;;;;;;;;;;;;;;;10.44;50.64;100247.66;4952612;28;128274;-65
2022/12/07 05:10:17;;;;;;;;;;;;;;;10.43;50.31;100248.75;4946456;28;107858;-65
2022/12/07 05:12:43;;;;;;;;;;;;;;;10.44;50.79;100241.47;4943391;28;127733;-68
2022/12/07 05:15:10;;;;;;;;;;;;;;;10.45;50.57;100245.75;4960807;28;102123;-65
2022/12/07 05:17:35;;;;;;;;;;;;;;;10.44;50.26;100241.47;4973173;28;128843;-68
2022/12/07 05:20:01;;;;;;;;;;;;;;;10.45;50.23;100246.59;4965423;28;125302;-65
2022/12/07 05:22:28;;;;;;;;;;;;;;;10.45;50.18;100240.38;4948315;28;127661;-65
2022/12/07 05:24:54;;;;;;;;;;;;;;;10.46;50.29;100233.94;4946319;28;97953;-68
2022/12/07 05:27:20;;;;;;;;;;;;;;;10.46;50.58;100234.72;4960401;28;113860;-65
2022/12/07 05:29:46;;;;;;;;;;;;;;;10.47;50.59;100240.94;4943417;28;114083;-65
2022/12/07 05:32:12;;;;;;;;;;;;;;;10.46;50.57;100237.44;4946507;28;116521;-65
2022/12/07 05:34:38;;;;;;;;;;;;;;;10.46;50.13;100232.03;4959580;28;98430;-65
2022/12/07 05:37:04;;;;;;;;;;;;;;;10.48;50.29;100226.38;4960622;28;127972;-65
2022/12/07 05:39:30;;;;;;;;;;;;;;;10.48;50.46;100205.59;4956744;28;128603;-68
2022/12/07 05:42:14;;;;;;;;;;;;;;;10.49;50.67;100209.94;4962194;28;126625;-68
2022/12/07 05:44:44;;;;;;;;;;;;;;;10.49;50.67;100209.09;4952467;28;99773;-65
2022/12/07 05:47:11;;;;;;;;;;;;;;;10.48;50.53;100211.00;4961718;28;98547;-68
2022/12/07 05:49:37;;;;;;;;;;;;;;;10.48;50.55;100211.00;4957678;28;129267;-65
2022/12/07 05:52:03;;;;;;;;;;;;;;;10.48;50.28;100207.50;4943811;28;98238;-65
2022/12/07 05:54:29;;;;;;;;;;;;;;;10.48;50.46;100207.50;4939954;28;98045;-68
2022/12/07 05:56:55;;;;;;;;;;;;;;;10.48;50.47;100210.19;4940201;28;128275;-68
2022/12/07 05:59:24;;;;;;;;;;;;;;;10.47;50.31;100203.19;4958535;28;98512;-65
2022/12/07 06:01:54;;;;;;;;;;;;;;;10.47;50.21;100209.38;4957139;28;100134;-68
2022/12/07 06:04:20;;;;;;;;;;;;;;;10.46;50.33;100215.88;4956823;28;105112;-68
2022/12/07 06:06:46;;;;;;;;;;;;;;;10.47;50.27;100217.47;4940252;28;98341;-67
2022/12/07 06:09:12;;;;;;;;;;;;;;;10.47;50.40;100208.59;4955916;28;99499;-65
2022/12/07 06:14:24;;;;;;;;;;;;;;;10.48;50.54;100204.81;4958853;28;98013;-65
2022/12/07 06:16:49;;;;;;;;;;;;;;;10.49;50.42;100207.25;4940947;28;127232;-65
2022/12/07 06:19:15;;;;;;;;;;;;;;;10.49;50.25;100209.94;4956357;28;127165;-67
2022/12/07 06:21:41;;;;;;;;;;;;;;;10.49;50.67;100201.84;4961111;28;122288;-68
2022/12/07 06:24:09;;;;;;;;;;;;;;;10.48;50.61;100197.53;4925684;28;98282;-65
2022/12/07 06:26:34;;;;;;;;;;;;;;;10.50;50.24;100211.53;4941418;28;124842;-65
2022/12/07 06:29:00;;;;;;;;;;;;;;;10.51;50.23;100209.66;4942269;28;127343;-68
2022/12/07 06:31:26;;;;;;;;;;;;;;;10.51;50.61;100202.38;4942942;28;98202;-66
2022/12/07 06:33:56;;;;;;;;;;;;;;;10.50;50.52;100205.34;4942636;28;117767;-65
2022/12/07 06:36:22;;;;;;;;;;;;;;;10.51;50.24;100207.75;4956914;28;112848;-67
2022/12/07 06:38:48;;;;;;;;;;;;;;;10.52;50.29;100208.56;4959189;28;98152;-65
2022/12/07 06:41:14;;;;;;;;;;;;;;;10.52;50.48;100197.78;4957499;28;127557;-67
2022/12/07 06:43:41;;;;;;;;;;;;;;;10.51;50.71;100201.56;4955686;28;118916;-64
2022/12/07 06:46:07;;;;;;;;;;;;;;;10.51;50.37;100206.97;4956018;28;98524;-66
2022/12/07 06:48:33;;;;;;;;;;;;;;;10.50;50.25;100214.25;4941154;28;98090;-65
2022/12/07 06:50:59;;;;;;;;;;;;;;;10.48;50.47;100197.53;4938415;28;98827;-62
2022/12/07 06:53:25;;;;;;;;;;;;;;;10.48;50.47;100202.91;4944414;28;117993;-65
2022/12/07 06:55:51;;;;;;;;;;;;;;;10.47;50.52;100209.38;4942724;28;127222;-62
2022/12/07 06:58:17;;;;;;;;;;;;;;;10.48;50.39;100196.72;4954512;28;98448;-65
2022/12/07 07:00:43;;;;;;;;;;;;;;;10.47;50.24;100205.88;4951593;28;122489;-65
2022/12/07 07:03:09;;;;;;;;;;;;;;;10.45;50.32;100208.88;4959206;28;115585;-62
2022/12/07 07:05:35;;;;;;;;;;;;;;;10.45;50.34;100195.41;4974531;28;128228;-66
2022/12/07 07:08:01;;;;;;;;;;;;;;;10.44;50.33;100201.84;4938383;28;126289;-66
2022/12/07 07:10:27;;;;;;;;;;;;;;;10.44;50.47;100199.16;4928630;28;99126;-66
2022/12/07 07:12:53;;;;;;;;;;;;;;;10.44;50.31;100198.34;4954982;28;117899;-63
2022/12/07 07:15:19;;;;;;;;;;;;;;;10.45;50.37;100197.25;4940530;28;117404;-66
2022/12/07 07:17:45;;;;;;;;;;;;;;;10.44;50.43;100188.38;4951251;28;128656;-66
2022/12/07 07:20:11;;;;;;;;;;;;;;;10.43;50.24;100197.53;4955652;28;125467;-66
2022/12/07 07:22:37;;;;;;;;;;;;;;;10.44;50.31;100201.84;4956999;28;98134;-63
2022/12/07 07:25:03;;;;;;;;;;;;;;;10.44;50.15;100209.94;4968229;28;128368;-67
2022/12/07 07:27:29;;;;;;;;;;;;;;;10.46;50.03;100198.91;4937683;28;115711;-66
2022/12/07 07:29:55;;;;;;;;;;;;;;;10.47;50.23;100198.59;4957179;28;127595;-66
2022/12/07 07:32:21;;;;;;;;;;;;;;;10.48;50.44;100188.63;4940776;28;117628;-64
2022/12/07 07:34:48;;;;;;;;;;;;;;;10.50;50.21;100189.19;4939678;28;98230;-67
2022/12/07 07:37:13;;;;;;;;;;;;;;;10.51;50.15;100193.47;4957224;28;104353;-64
2022/12/07 07:39:40;;;;;;;;;;;;;;;10.53;50.41;100194.00;4918754;28;117578;-67
2022/12/07 07:42:07;;;;;;;;;;;;;;;10.53;50.35;100199.38;4957977;28;98038;-64
2022/12/07 07:44:33;;;;;;;;;;;;;;;10.55;49.92;100191.84;4955711;28;98239;-64
2022/12/07 07:46:59;;;;;;;;;;;;;;;10.55;50.33;100189.97;4938179;28;101094;-64
2022/12/07 07:49:25;;;;;;;;;;;;;;;10.57;50.40;100190.50;4939443;28;127389;-64
2022/12/07 07:51:51;;;;;;;;;;;;;;;10.59;50.41;100189.44;4957189;28;98327;-64
2022/12/07 07:54:17;;;;;;;;;;;;;;;10.61;50.15;100188.06;4955840;28;127235;-67
2022/12/07 07:56:43;;;;;;;;;;;;;;;10.64;50.08;100184.00;4937834;28;128190;-67
2022/12/07 07:59:09;;;;;;;;;;;;;;;10.68;50.05;100190.47;4965963;28;98079;-67
2022/12/07 08:01:35;;;;;;;;;;;;;;;10.74;50.27;100189.38;4942089;28;117092;-68
2022/12/07 08:04:01;;;;;;;;;;;;;;;10.75;50.31;100194.47;4975288;28;98630;-65
2022/12/07 08:06:27;;;;;;;;;;;;;;;10.78;49.76;100187.75;4938924;28;128473;-65
2022/12/07 08:08:53;;;;;;;;;;;;;;;10.78;49.99;100190.44;4956194;28;123358;-67
2022/12/07 08:11:19;;;;;;;;;;;;;;;10.78;50.21;100196.63;4940739;28;98223;-65
2022/12/07 08:13:48;;;;;;;;;;;;;;;10.79;50.30;100192.84;4959073;28;126966;-67
2022/12/07 08:16:14;;;;;;;;;;;;;;;10.80;49.89;100185.56;4972749;28;98946;-65
2022/12/07 08:18:41;;;;;;;;;;;;;;;10.80;50.13;100190.97;4955882;28;97990;-65
2022/12/07 08:21:07;;;;;;;;;;;;;;;10.82;50.34;100189.63;4956059;28;98060;-64
2022/12/07 08:23:33;;;;;;;;;;;;;;;10.84;49.99;100181.25;4939552;28;99610;-65
2022/12/07 08:26:09;;;;;;;;;;;;;;;10.86;49.93;100181.78;4940942;28;98147;-67
2022/12/07 08:28:35;;;;;;;;;;;;;;;10.93;49.92;100181.50;4940159;28;98250;-65
2022/12/07 08:31:01;;;;;;;;;;;;;;;10.96;50.00;100180.91;4935276;28;116886;-67
2022/12/07 08:33:27;;;;;;;;;;;;;;;11.03;49.86;100178.75;4939971;28;107567;-67
2022/12/07 08:35:53;;;;;;;;;;;;;;;11.10;49.88;100181.13;4938765;28;130129;-67
2022/12/07 08:38:19;;;;;;;;;;;;;;;11.12;49.88;100178.97;4936548;28;127941;-67
2022/12/07 08:40:52;;;;;;;;;;;;;;;11.18;49.91;100184.06;4939056;28;117676;-67
2022/12/07 08:43:18;;;;;;;;;;;;;;;11.33;49.69;100183.19;4943977;28;124067;-67
2022/12/07 08:45:44;;;;;;;;;;;;;;;11.37;49.68;100178.03;4958904;28;123236;-65
2022/12/07 08:48:11;;;;;;;;;;;;;;;11.39;49.70;100173.16;4956224;28;127928;-65
2022/12/07 08:50:37;;;;;;;;;;;;;;;11.40;49.88;100180.19;4925557;28;112534;-68
2022/12/07 08:53:03;;;;;;;;;;;;;;;11.42;49.83;100178.00;4940837;28;128047;-68
2022/12/07 08:55:29;;;;;;;;;;;;;;;11.44;49.81;100171.25;4941808;28;127851;-65
2022/12/07 08:57:55;;;;;;;;;;;;;;;11.51;49.73;100179.84;4956119;28;127783;-65
2022/12/07 09:00:21;;;;;;;;;;;;;;;11.54;49.71;100176.56;4938826;28;119306;-68
2022/12/07 09:02:46;;;;;;;;;;;;;;;11.61;49.68;100188.94;4923616;28;127727;-68
2022/12/07 09:05:14;;;;;;;;;;;;;;;11.61;49.57;100186.25;4937611;28;126699;-68
2022/12/07 09:07:41;;;;;;;;;;;;;;;11.63;49.69;100192.16;4954769;28;98780;-65
2022/12/07 09:10:07;;;;;;;;;;;;;;;11.69;49.87;100188.34;4955522;28;99086;-65
2022/12/07 09:12:33;;;;;;;;;;;;;;;11.81;49.62;100191.47;4939470;28;98450;-65
2022/12/07 09:15:00;;;;;;;;;;;;;;;11.94;49.47;100176.56;4950769;28;113787;-65
2022/12/07 09:17:26;;;;;;;;;;;;;;;12.11;49.38;100170.75;4956319;28;98906;-68
2022/12/07 09:19:52;;;;;;;;;;;;;;;12.25;49.11;100179.78;4938797;28;117681;-65
2022/12/07 09:22:18;;;;;;;;;;;;;;;12.39;49.02;100175.34;4939047;28;98103;-65
2022/12/07 09:24:45;;;;;;;;;;;;;;;12.43;49.28;100179.06;4959800;28;116103;-67
2022/12/07 09:27:11;;;;;;;;;;;;;;;12.49;49.14;100179.81;4939897;28;99356;-65
2022/12/07 09:29:37;;;;;;;;;;;;;;;12.53;49.50;100180.84;4953422;28;106745;-65
2022/12/07 09:32:03;;;;;;;;;;;;;;;12.56;49.17;100179.47;4939231;28;98201;-65
2022/12/07 09:34:31;;;;;;;;;;;;;;;12.55;49.45;100181.38;4934989;28;123197;-68
2022/12/07 09:36:57;;;;;;;;;;;;;;;12.56;49.52;100182.19;4974895;28;98238;-68
2022/12/07 09:39:23;;;;;;;;;;;;;;;12.61;49.43;100182.91;4964601;28;98239;-68
2022/12/07 09:41:49;;;;;;;;;;;;;;;12.67;49.20;100181.78;4943369;28;128240;-68
2022/12/07 09:44:23;;;;;;;;;;;;;;;12.61;49.55;100180.22;4960138;28;126192;-66
2022/12/07 09:46:50;;;;;;;;;;;;;;;12.60;49.38;100181.31;4957606;28;97962;-66
2022/12/07 09:49:18;;;;;;;;;;;;;;;12.57;49.47;100175.69;4960831;28;98445;-68
2022/12/07 09:51:44;;;;;;;;;;;;;;;12.59;49.63;100184.31;4942888;28;99701;-68
2022/12/07 09:54:13;;;;;;;;;;;;;;;12.57;49.65;100181.09;4925827;28;114867;-65
2022/12/07 09:56:39;;;;;;;;;;;;;;;12.57;49.53;100184.59;4956267;28;98406;-65
2022/12/07 09:59:05;;;;;;;;;;;;;;;12.53;49.75;100180.84;4942219;28;117615;-68
2022/12/07 10:01:32;;;;;;;;;;;;;;;12.56;49.57;100183.00;4919891;28;127101;-68
2022/12/07 10:04:16;;;;;;;;;;;;;;;12.60;49.80;100183.22;4942534;28;99056;-68
2022/12/07 10:06:42;;;;;;;;;;;;;;;12.64;49.38;100184.25;4973037;27;99958;-68
2022/12/07 10:09:12;;;;;;;;;;;;;;;12.69;49.47;100181.47;4968827;28;98111;-68
2022/12/07 10:12:11;;;;;;;;;;;;;;;12.73;49.45;100175.25;4940025;28;99746;-68
2022/12/07 10:15:02;;;;;;;;;;;;;;;12.72;49.65;100172.81;4081390;28;10000860;-68
2022/12/07 10:17:35;;;;;;;;;;;;;;;12.70;49.75;100173.09;4065050;27;10001082;-66
2022/12/07 10:20:15;;;;;;;;;;;;;;;12.65;49.70;100166.94;4053856;28;10001349;-67
2022/12/07 10:22:54;;;;;;;;;;;;;;;12.62;49.55;100181.84;4934783;28;98639;-68
2022/12/07 10:25:21;;;;;;;;;;;;;;;12.62;49.40;100168.34;4953533;28;98371;-68
2022/12/07 10:28:01;;;;;;;;;;;;;;;12.58;49.48;100180.81;4939395;28;123782;-65
2022/12/07 10:30:27;;;;;;;;;;;;;;;12.53;49.54;100180.84;4957455;28;107999;-68
2022/12/07 10:32:52;;;;;;;;;;;;;;;12.57;49.89;100181.88;4920691;28;113949;-68
2022/12/07 10:35:21;;;;;;;;;;;;;;;12.58;49.71;100186.22;4935512;28;116355;-65
2022/12/07 10:37:47;;;;;;;;;;;;;;;12.62;49.76;100186.47;4933456;28;103792;-65
2022/12/07 10:40:33;;;;;;;;;;;;;;;12.62;49.60;100186.47;4935816;28;122389;-68
2022/12/07 10:43:12;;;;;;;;;;;;;;;12.59;49.63;100173.50;4972814;28;98290;-68
2022/12/07 10:45:50;;;;;;;;;;;;;;;12.54;49.82;100174.38;4957939;28;98164;-65
2022/12/07 10:48:34;;;;;;;;;;;;;;;12.48;49.84;100176.31;4971999;27;105084;-65
2022/12/07 10:51:11;;;;;;;;;;;;;;;12.46;49.96;100181.22;4955549;28;126551;-65
2022/12/07 10:53:52;;;;;;;;;;;;;;;12.44;49.70;100179.88;4972943;28;99405;-67
2022/12/07 10:56:35;;;;;;;;;;;;;;;12.41;49.86;100178.53;4955952;28;98327;-68
2022/12/07 10:59:28;;;;;;;;;;;;;;;12.40;50.01;100179.63;4957628;28;100514;-65
2022/12/07 11:02:12;;;;;;;;;;;;;;;12.46;49.62;100169.59;4940680;28;118036;-68
2022/12/07 11:05:09;;;;;;;;;;;;;;;12.44;49.74;100167.16;4957963;28;122515;-68
2022/12/07 11:07:38;;;;;;;;;;;;;;;12.44;49.88;100160.94;4928928;28;99969;-65
2022/12/07 11:10:23;;;;;;;;;;;;;;;12.39;49.89;100171.81;4970062;28;98705;-65
2022/12/07 11:13:17;;;;;;;;;;;;;;;12.38;49.92;100165.63;4956754;28;99099;-66
2022/12/07 11:16:04;;;;;;;;;;;;;;;12.40;49.93;100166.13;4971426;28;98036;-66
2022/12/07 11:18:45;;;;;;;;;;;;;;;12.39;49.70;100164.53;4940061;28;101150;-68
2022/12/07 11:21:20;;;;;;;;;;;;;;;12.36;49.73;100164.28;4940440;28;125462;-65
2022/12/07 11:23:59;;;;;;;;;;;;;;;12.34;50.10;100163.75;4956145;28;98567;-68
2022/12/07 11:26:40;;;;;;;;;;;;;;;12.36;49.99;100167.00;4957308;28;98824;-69
2022/12/07 11:29:41;;;;;;;;;;;;;;;12.44;49.88;100169.06;4971641;28;113758;-68
2022/12/07 11:32:17;;;;;;;;;;;;;;;12.59;49.56;100157.28;4933729;28;99311;-65
2022/12/07 11:35:06;;;;;;;;;;;;;;;12.65;49.67;100158.81;4953199;28;98005;-66
2022/12/07 11:37:34;;;;;;;;;;;;;;;12.65;49.66;100161.53;4959397;28;98059;-65
2022/12/07 11:40:24;;;;;;;;;;;;;;;12.68;49.53;100158.25;4941180;28;98583;-68
2022/12/07 11:43:19;;;;;;;;;;;;;;;12.76;49.70;100157.59;4925688;28;100722;-65
2022/12/07 11:45:58;;;;;;;;;;;;;;;12.86;49.35;100159.41;4963865;28;98651;-68
2022/12/07 11:49:03;;;;;;;;;;;;;;;12.92;49.23;100159.03;4942655;28;99660;-65
2022/12/07 11:51:31;;;;;;;;;;;;;;;12.99;49.45;100156.78;4947201;28;98135;-65
2022/12/07 11:54:14;;;;;;;;;;;;;;;13.04;49.41;100155.91;4930731;28;98360;-69
2022/12/07 11:56:40;;;;;;;;;;;;;;;13.08;49.29;100148.81;4945519;27;98261;-68
2022/12/07 11:59:27;;;;;;;;;;;;;;;13.11;49.21;100152.84;4971369;28;127421;-68
2022/12/07 12:01:58;;;;;;;;;;;;;;;13.17;49.05;100149.78;4965391;27;113261;-65
2022/12/07 12:04:32;;;;;;;;;;;;;;;13.23;49.07;100153.25;4938256;28;124379;-65
2022/12/07 12:06:58;;;;;;;;;;;;;;;13.27;49.24;100146.94;4956571;28;99008;-68
2022/12/07 12:09:35;;;;;;;;;;;;;;;13.27;49.29;100141.53;4955180;28;127400;-65
2022/12/07 12:12:31;;;;;;;;;;;;;;;13.23;49.49;100145.91;4955385;28;98226;-65
2022/12/07 12:15:21;;;;;;;;;;;;;;;13.19;49.27;100141.38;4942961;28;106829;-69
2022/12/07 12:18:32;;;;;;;;;;;;;;;13.16;49.42;100142.75;4952631;28;128122;-68
2022/12/07 12:21:03;;;;;;;;;;;;;;;13.12;49.35;100139.00;4951938;28;98182;-65
2022/12/07 12:23:51;;;;;;;;;;;;;;;13.08;49.60;100145.31;4951539;28;113861;-66
2022/12/07 12:26:24;;;;;;;;;;;;;;;13.01;49.54;100141.06;4972361;28;98705;-68
2022/12/07 12:29:08;;;;;;;;;;;;;;;13.01;49.64;100140.28;4968200;28;99716;-66
2022/12/07 12:31:38;;;;;;;;;;;;;;;13.00;49.45;100144.03;4938860;28;98223;-67
2022/12/07 12:34:24;;;;;;;;;;;;;;;13.02;49.74;100142.66;4953325;28;98153;-68
2022/12/07 12:36:49;;;;;;;;;;;;;;;13.08;49.60;100145.31;4956959;28;98375;-68
2022/12/07 12:39:20;;;;;;;;;;;;;;;13.06;49.44;100140.19;4939102;28;128291;-66
2022/12/07 12:44:15;;;;;;;;;;;;;;;13.12;49.66;100143.63;4972723;28;98650;-65
2022/12/07 12:46:49;;;;;;;;;;;;;;;13.14;49.46;100138.75;4972486;28;99356;-68
2022/12/07 12:49:21;;;;;;;;;;;;;;;13.17;49.42;100136.25;4956017;28;99568;-65
2022/12/07 12:51:48;;;;;;;;;;;;;;;13.21;49.65;100137.28;4969249;28;98191;-68
2022/12/07 12:54:21;;;;;;;;;;;;;;;13.22;49.68;100141.59;4941195;28;101862;-65